Norfolk, NE (68701)

4:21 AM CDT on August 31, 2016 (GMT -0500)
North Norfolk | | Change Station
Active Advisory: Dense Fog Advisory

Elev 1614 ft 42.05 °N, 97.44 °W | Updated 31 seconds ago

Mostly Cloudy
Mostly Cloudy
68.5 °F
Feels Like 68.5 °F
N
0.0
Wind Variable Wind from WSW
Gusts 0.0 mph

Today
High -- | Low -- °F
--% Chance of Precip.
Yesterday
High -- | Low -- °F
Precip. -- in
Pressure 30.20 in
Visibility 4.0 miles
Clouds Few 200 ft
Mostly Cloudy 2100 ft
Mostly Cloudy 2800 ft
Dew Point 68 °F
Humidity 98%
Rainfall 0.00 in
Snow Depth Not available.
6:54 AM 8:04 PM
Waning Crescent, 1% visible
SPECI KOFK 310917Z AUTO 00000KT 4SM BR FEW002 BKN021 BKN028 18/18 A3020 RMK AO2 T01830178
Pressure 30.20 in
Visibility 4.0 miles
Clouds Few 200 ft
Mostly Cloudy 2100 ft
Mostly Cloudy 2800 ft
Dew Point 68 °F
Humidity 98%
Rainfall 0.00 in
Snow Depth Not available.
6:54 AM 8:04 PM
Waning Crescent, 1% visible
SPECI KOFK 310917Z AUTO 00000KT 4SM BR FEW002 BKN021 BKN028 18/18 A3020 RMK AO2 T01830178

10-Day Weather Forecast

Almanac

Astronomy

Aug. 31, 2016 Rise Set
Actual Time
Civil Twilight
Nautical Twilight
Astronomical Twilight
Moon
Length of Visible Light
Length of Day
Tomorrow will be .
, % of the Moon is Illuminated

Today's Extremes

State Highs State Lows

Community

WunderPhotos

Upload Photos

1,936,059 photos uploaded!

WunderBlog® & News

Nearby

Air Quality

  Air Quality AQ Index Pollutant
Not available.

Snow Depth

Station Depth Elevation

Earthquake Activity

City Distance Mag. Time & Date
Minimum magnitude displayed is 2.5.

Coastal Water Temperatures

Place Temperature

Stations

Nearby Weather Stations

Station Location Temp. Windchill Dew Point Humidity Wind Precip. Elev Updated Type
                   

Watches & Warnings

Dense Fog Advisory
Issued: 3:38 AM CDT Aug. 31, 2016 – National Weather Service

... Dense fog advisory in effect until 10 am CDT this morning...

The National Weather Service in Omaha/valley has issued a dense
fog advisory... which is in effect until 10 am CDT this morning.

* Visibility... the dense fog will drop visibilities to a quarter
mile or less during the morning commute.

* Impacts... the low visibilities could cause difficult driving
conditions. Please slow down and use low beam headlights.

Precautionary/preparedness actions...

A dense fog advisory means visibilities will frequently be
reduced to less than one quarter mile. If driving, slow down, use
your headlights, and leave plenty of distance ahead of you.